createdAt,value
2023-02-09T00:01:30.244Z,11.55
2023-02-09T00:03:59.285Z,10.85
2023-02-09T00:06:29.856Z,8.20
2023-02-09T00:08:59.684Z,8.50
2023-02-09T00:11:49.003Z,8.15
2023-02-09T00:14:21.521Z,7.97
2023-02-09T00:19:18.226Z,3.65
2023-02-09T00:21:45.228Z,7.10
2023-02-09T00:24:13.441Z,7.13
2023-02-09T00:26:41.715Z,2.88
2023-02-09T00:29:09.525Z,3.03
2023-02-09T00:31:36.998Z,6.80
2023-02-09T00:34:04.384Z,6.20
2023-02-09T00:36:32.111Z,8.90
2023-02-09T00:38:59.890Z,6.13
2023-02-09T00:41:45.662Z,8.70
2023-02-09T00:44:12.876Z,4.82
2023-02-09T00:46:39.954Z,7.40
2023-02-09T00:49:07.067Z,7.10
2023-02-09T00:51:34.158Z,4.95
2023-02-09T00:54:01.209Z,4.65
2023-02-09T00:56:28.212Z,9.52
2023-02-09T00:58:55.200Z,8.98
2023-02-09T01:01:22.202Z,11.23
2023-02-09T01:03:49.211Z,3.15
2023-02-09T01:06:16.205Z,7.35
2023-02-09T01:08:43.168Z,3.60
2023-02-09T01:11:13.578Z,8.20
2023-02-09T01:13:41.819Z,7.25
2023-02-09T01:16:13.009Z,6.95
2023-02-09T01:18:40.494Z,3.78
2023-02-09T01:21:17.506Z,6.75
2023-02-09T01:23:45.658Z,3.22
2023-02-09T01:26:14.110Z,3.72
2023-02-09T01:28:41.794Z,3.08
2023-02-09T01:31:24.443Z,5.78
2023-02-09T01:33:53.509Z,3.15
2023-02-09T01:36:21.082Z,6.38
2023-02-09T01:38:48.427Z,5.88
2023-02-09T01:41:15.578Z,3.17
2023-02-09T01:44:06.015Z,5.60
2023-02-09T01:46:37.359Z,5.20
2023-02-09T01:49:13.597Z,4.80
2023-02-09T01:52:08.984Z,5.65
2023-02-09T01:54:40.946Z,5.13
2023-02-09T01:57:20.680Z,1.00
2023-02-09T01:59:56.316Z,5.35
2023-02-09T02:02:24.054Z,4.68
2023-02-09T02:04:52.690Z,4.82
2023-02-09T02:07:42.404Z,4.97
2023-02-09T02:10:09.823Z,3.20
2023-02-09T02:12:37.614Z,7.60
2023-02-09T02:15:05.445Z,2.72
2023-02-09T02:18:11.198Z,3.92
2023-02-09T02:20:49.919Z,1.48
2023-02-09T02:23:49.230Z,6.28
2023-02-09T02:26:30.775Z,3.13
2023-02-09T02:29:24.555Z,1.80
2023-02-09T02:31:56.956Z,2.70
2023-02-09T02:34:41.844Z,3.80
2023-02-09T02:37:23.242Z,2.20
2023-02-09T02:40:01.703Z,9.88
2023-02-09T02:42:53.702Z,6.13
2023-02-09T02:45:38.293Z,5.45
2023-02-09T02:48:16.622Z,6.97
2023-02-09T02:50:59.497Z,5.20
2023-02-09T02:53:31.984Z,7.65
2023-02-09T02:56:10.668Z,5.55
2023-02-09T02:58:40.506Z,7.00
2023-02-09T03:01:13.260Z,6.28
2023-02-09T03:03:42.528Z,2.03
2023-02-09T03:06:11.079Z,6.68
2023-02-09T03:08:56.524Z,5.90
2023-02-09T03:11:30.504Z,3.47
2023-02-09T03:14:48.194Z,2.60
2023-02-09T03:17:52.634Z,5.72
2023-02-09T03:20:47.208Z,4.30
2023-02-09T03:23:35.068Z,2.88
2023-02-09T03:26:14.321Z,3.08
2023-02-09T03:28:45.685Z,5.57
2023-02-09T03:31:13.954Z,3.83
2023-02-09T03:33:41.967Z,6.72
2023-02-09T03:36:18.699Z,5.32
2023-02-09T03:38:45.832Z,5.05
2023-02-09T03:41:12.865Z,5.63
2023-02-09T03:43:58.728Z,1.98
2023-02-09T03:46:25.764Z,5.53
2023-02-09T03:48:52.762Z,3.72
2023-02-09T03:51:19.704Z,1.63
2023-02-09T03:53:47.261Z,1.70
2023-02-09T03:56:14.290Z,3.78
2023-02-09T03:58:41.303Z,3.10
2023-02-09T04:01:11.136Z,3.22
2023-02-09T04:03:39.883Z,4.68
2023-02-09T04:06:07.065Z,6.70
2023-02-09T04:08:34.126Z,5.22
2023-02-09T04:11:01.094Z,6.72
2023-02-09T04:13:28.498Z,6.70
2023-02-09T04:15:55.520Z,5.70
2023-02-09T04:18:22.561Z,10.43
2023-02-09T04:20:49.538Z,7.25
2023-02-09T04:23:16.524Z,5.80
2023-02-09T04:25:43.585Z,7.97
2023-02-09T04:28:10.704Z,0.95
2023-02-09T04:30:37.798Z,9.77
2023-02-09T04:33:04.754Z,3.83
2023-02-09T04:35:31.704Z,2.10
2023-02-09T04:37:58.645Z,3.53
2023-02-09T04:40:25.617Z,4.75
2023-02-09T04:42:52.577Z,3.75
2023-02-09T04:45:19.705Z,5.57
2023-02-09T04:47:46.740Z,6.70
2023-02-09T04:50:15.026Z,6.97
2023-02-09T04:52:42.173Z,6.78
2023-02-09T04:55:17.327Z,5.35
2023-02-09T04:58:02.786Z,4.05
2023-02-09T05:00:29.845Z,4.63
2023-02-09T05:02:56.917Z,3.97
2023-02-09T05:05:23.912Z,4.53
2023-02-09T05:07:50.941Z,4.55
2023-02-09T05:10:18.075Z,4.00
2023-02-09T05:12:45.106Z,7.85
2023-02-09T05:15:12.137Z,3.72
2023-02-09T05:17:39.120Z,6.13
2023-02-09T05:20:07.890Z,4.63
2023-02-09T05:22:34.949Z,2.17
2023-02-09T05:25:01.930Z,5.40
2023-02-09T05:27:28.901Z,5.38
2023-02-09T05:29:57.090Z,5.00
2023-02-09T05:32:24.077Z,6.57
2023-02-09T05:34:51.220Z,4.25
2023-02-09T05:37:18.186Z,5.30
2023-02-09T05:39:45.241Z,5.60
2023-02-09T05:42:18.165Z,4.63
2023-02-09T05:44:50.540Z,5.13
2023-02-09T05:47:20.812Z,3.50
2023-02-09T05:49:47.981Z,3.85
2023-02-09T05:52:16.688Z,5.22
2023-02-09T05:54:44.076Z,4.80
2023-02-09T05:57:11.139Z,3.70
2023-02-09T05:59:38.122Z,6.57
2023-02-09T06:02:05.312Z,2.13
2023-02-09T06:04:32.428Z,5.07
2023-02-09T06:06:59.413Z,3.65
2023-02-09T06:09:26.678Z,6.35
2023-02-09T06:11:53.679Z,5.20
2023-02-09T06:14:20.825Z,4.68
2023-02-09T06:16:48.003Z,5.63
2023-02-09T06:19:18.346Z,4.10
2023-02-09T06:21:45.973Z,7.68
2023-02-09T06:24:14.797Z,4.55
2023-02-09T06:26:42.246Z,5.20
2023-02-09T06:29:09.447Z,2.00
2023-02-09T06:31:36.908Z,3.97
2023-02-09T06:34:05.803Z,4.32
2023-02-09T06:36:32.908Z,3.95
2023-02-09T06:39:00.081Z,8.68
2023-02-09T06:41:27.091Z,7.95
2023-02-09T06:43:54.098Z,2.55
2023-02-09T06:46:21.246Z,6.85
2023-02-09T06:48:48.257Z,2.00
2023-02-09T06:51:17.076Z,2.58
2023-02-09T06:53:44.516Z,1.13
2023-02-09T06:56:13.344Z,2.17
2023-02-09T06:58:41.881Z,3.30
2023-02-09T07:01:13.070Z,3.30
2023-02-09T07:03:40.036Z,3.20
2023-02-09T07:06:17.102Z,2.90
2023-02-09T07:08:45.564Z,2.30
2023-02-09T07:11:16.543Z,1.70
2023-02-09T07:13:44.121Z,5.13
2023-02-09T07:16:12.191Z,2.45
2023-02-09T07:18:39.648Z,2.72
2023-02-09T07:21:10.479Z,1.17
2023-02-09T07:23:39.057Z,2.28
2023-02-09T07:26:10.592Z,3.47
2023-02-09T07:28:38.275Z,1.20
2023-02-09T07:31:09.800Z,1.88
2023-02-09T07:33:37.641Z,1.35
2023-02-09T07:36:11.142Z,2.67
2023-02-09T07:38:38.922Z,2.85
2023-02-09T07:41:08.333Z,3.50
2023-02-09T07:43:35.586Z,2.15
2023-02-09T07:46:05.562Z,4.20
2023-02-09T07:48:33.684Z,2.58
2023-02-09T07:51:01.144Z,4.13
2023-02-09T07:53:28.908Z,3.20
2023-02-09T07:55:56.036Z,3.45
2023-02-09T07:58:23.403Z,2.97
2023-02-09T08:00:51.670Z,1.17
2023-02-09T08:03:22.686Z,1.73
2023-02-09T08:06:41.059Z,2.60
2023-02-09T08:09:10.837Z,1.58
2023-02-09T08:11:55.905Z,2.25
2023-02-09T08:14:29.603Z,3.33
2023-02-09T08:17:20.112Z,1.77
2023-02-09T08:19:56.088Z,2.25
2023-02-09T08:22:25.187Z,3.72
2023-02-09T08:24:53.144Z,3.80
2023-02-09T08:27:20.165Z,2.22
2023-02-09T08:29:48.962Z,4.00
2023-02-09T08:32:16.239Z,2.92
2023-02-09T08:34:43.419Z,3.15
2023-02-09T08:37:10.336Z,1.83
2023-02-09T08:39:37.309Z,4.75
2023-02-09T08:42:04.359Z,2.22
2023-02-09T08:44:31.504Z,2.08
2023-02-09T08:46:58.638Z,2.63
2023-02-09T08:49:25.844Z,1.70
2023-02-09T08:51:52.786Z,1.70
2023-02-09T08:54:20.051Z,2.83
2023-02-09T08:56:47.058Z,3.03
2023-02-09T08:59:14.011Z,3.30
2023-02-09T09:01:42.381Z,2.47
2023-02-09T09:04:10.046Z,3.90
2023-02-09T09:06:37.388Z,3.10
2023-02-09T09:09:04.650Z,3.63
2023-02-09T09:11:31.926Z,3.70
2023-02-09T09:13:59.158Z,3.03
2023-02-09T09:16:26.265Z,2.25
2023-02-09T09:18:53.270Z,2.83
2023-02-09T09:21:20.335Z,3.03
2023-02-09T09:23:48.125Z,2.50
2023-02-09T09:26:16.738Z,1.98
2023-02-09T09:28:44.101Z,3.72
2023-02-09T09:31:16.592Z,4.43
2023-02-09T09:33:44.970Z,2.83
2023-02-09T09:36:14.500Z,2.63
2023-02-09T09:38:41.971Z,2.22
2023-02-09T09:41:38.323Z,4.30
2023-02-09T09:44:19.059Z,1.73
2023-02-09T09:46:51.595Z,2.10
2023-02-09T09:49:28.248Z,2.20
2023-02-09T09:52:23.189Z,3.72
2023-02-09T09:54:51.106Z,1.92
2023-02-09T09:57:24.430Z,1.55
2023-02-09T09:59:52.284Z,5.80
2023-02-09T10:02:31.269Z,2.28
2023-02-09T10:05:23.973Z,3.38
2023-02-09T10:08:20.932Z,1.48
2023-02-09T10:11:15.041Z,1.77
2023-02-09T10:13:57.279Z,2.47
2023-02-09T10:16:38.196Z,2.78
2023-02-09T10:19:16.897Z,1.55
2023-02-09T10:21:43.868Z,1.92
2023-02-09T10:24:30.985Z,2.17
2023-02-09T10:27:21.962Z,2.55
2023-02-09T10:29:49.030Z,7.07
2023-02-09T10:32:23.591Z,3.40
2023-02-09T10:34:57.861Z,2.00
2023-02-09T10:37:39.596Z,2.47
2023-02-09T10:40:34.506Z,1.90
2023-02-09T10:43:05.829Z,1.80
2023-02-09T10:45:51.362Z,4.53
2023-02-09T10:48:21.320Z,2.83
2023-02-09T10:50:52.141Z,2.92
2023-02-09T10:53:38.478Z,2.28
2023-02-09T10:56:22.707Z,2.25
2023-02-09T10:59:02.218Z,3.85
2023-02-09T11:01:34.503Z,3.22
2023-02-09T11:04:04.659Z,4.68
2023-02-09T11:06:58.453Z,3.00
2023-02-09T11:09:36.355Z,3.80
2023-02-09T11:12:03.571Z,2.42
2023-02-09T11:14:30.668Z,3.83
2023-02-09T11:17:36.430Z,2.60
2023-02-09T11:20:38.030Z,2.45
2023-02-09T11:23:29.493Z,3.17
2023-02-09T11:26:19.563Z,4.57
2023-02-09T11:29:17.130Z,2.78
2023-02-09T11:32:08.181Z,3.03
2023-02-09T11:35:26.455Z,3.70
2023-02-09T11:38:10.294Z,3.38
2023-02-09T11:40:47.974Z,4.68
2023-02-09T11:43:37.629Z,3.45
2023-02-09T11:46:15.729Z,3.75
2023-02-09T11:48:52.170Z,3.15
2023-02-09T11:51:24.569Z,3.38
2023-02-09T11:54:23.081Z,4.35
2023-02-09T11:56:55.929Z,2.95
2023-02-09T11:59:25.452Z,2.08
2023-02-09T12:02:00.449Z,3.85
2023-02-09T12:04:58.507Z,3.03
2023-02-09T12:07:32.815Z,1.95
2023-02-09T12:10:27.203Z,1.77
2023-02-09T12:13:20.430Z,2.05
2023-02-09T12:15:58.029Z,1.77
2023-02-09T12:18:29.464Z,2.95
2023-02-09T12:21:05.467Z,4.13
2023-02-09T12:23:43.984Z,3.72
2023-02-09T12:26:16.517Z,4.82
2023-02-09T12:28:47.754Z,4.28
2023-02-09T12:31:23.214Z,2.75
2023-02-09T12:33:59.206Z,3.83
2023-02-09T12:36:29.904Z,2.65
2023-02-09T12:39:05.067Z,5.80
2023-02-09T12:41:56.122Z,4.50
2023-02-09T12:44:22.974Z,6.18
2023-02-09T12:46:54.685Z,4.80
2023-02-09T12:49:27.510Z,4.15
2023-02-09T12:52:13.911Z,2.88
2023-02-09T12:54:56.837Z,1.95
2023-02-09T12:57:25.459Z,2.60
2023-02-09T13:00:03.651Z,2.90
2023-02-09T13:02:42.632Z,2.95
2023-02-09T13:05:15.426Z,3.42
2023-02-09T13:07:56.580Z,3.35
2023-02-09T13:11:01.897Z,4.28
2023-02-09T13:13:50.665Z,4.30
2023-02-09T13:16:29.434Z,3.60
2023-02-09T13:19:17.876Z,4.05
2023-02-09T13:22:19.284Z,4.82
2023-02-09T13:25:35.434Z,3.95
2023-02-09T13:28:15.263Z,2.53
2023-02-09T13:30:42.988Z,4.22
2023-02-09T13:33:50.913Z,3.45
2023-02-09T13:36:59.569Z,3.05
2023-02-09T13:39:32.261Z,3.30
2023-02-09T13:41:59.461Z,5.07
2023-02-09T13:44:29.954Z,6.25
2023-02-09T13:47:01.001Z,4.97
2023-02-09T13:49:29.849Z,2.88
2023-02-09T13:52:22.177Z,2.55
2023-02-09T13:54:50.154Z,3.03
2023-02-09T13:57:39.464Z,4.93
2023-02-09T14:00:20.063Z,4.93
2023-02-09T14:03:22.577Z,4.63
2023-02-09T14:06:38.327Z,5.13
2023-02-09T14:09:15.585Z,2.85
2023-02-09T14:12:01.971Z,2.58
2023-02-09T14:14:53.436Z,3.67
2023-02-09T14:17:29.952Z,4.47
2023-02-09T14:19:59.451Z,2.50
2023-02-09T14:22:39.133Z,2.33
2023-02-09T14:25:13.105Z,2.95
2023-02-09T14:27:47.166Z,2.70
2023-02-09T14:30:25.356Z,3.33
2023-02-09T14:32:57.951Z,2.03
2023-02-09T14:35:36.395Z,3.30
2023-02-09T14:38:04.023Z,6.20
2023-02-09T14:40:37.002Z,3.28
2023-02-09T14:43:12.544Z,4.95
2023-02-09T14:46:00.176Z,9.02
2023-02-09T14:48:29.842Z,2.60
2023-02-09T14:51:01.282Z,4.93
2023-02-09T14:53:31.924Z,3.90
2023-02-09T14:55:59.344Z,4.35
2023-02-09T14:58:32.357Z,4.28
2023-02-09T15:03:29.099Z,3.00
2023-02-09T15:06:04.089Z,5.07
2023-02-09T15:08:37.593Z,2.92
2023-02-09T15:11:27.432Z,4.90
2023-02-09T15:14:03.738Z,3.03
2023-02-09T15:16:31.553Z,3.83
2023-02-09T15:18:58.637Z,5.70
2023-02-09T15:21:25.571Z,1.65
2023-02-09T15:23:52.518Z,3.50
2023-02-09T15:26:26.753Z,3.35
2023-02-09T15:28:54.189Z,3.20
2023-02-09T15:31:21.977Z,2.88
2023-02-09T15:33:49.136Z,2.35
2023-02-09T15:36:20.505Z,3.20
2023-02-09T15:38:48.365Z,3.95
2023-02-09T15:41:36.138Z,2.33
2023-02-09T15:44:38.646Z,3.33
2023-02-09T15:47:24.589Z,3.75
2023-02-09T15:49:51.651Z,3.47
2023-02-09T15:52:19.088Z,3.20
2023-02-09T15:54:46.259Z,3.13
2023-02-09T15:57:15.056Z,2.97
2023-02-09T15:59:42.709Z,3.38
2023-02-09T16:02:14.732Z,7.75
2023-02-09T16:04:41.784Z,13.95
2023-02-09T16:13:19.882Z,5.13
2023-02-09T16:15:48.050Z,7.57
2023-02-09T16:18:15.339Z,10.25
2023-02-09T16:20:50.466Z,10.05
2023-02-09T16:23:23.028Z,12.52
2023-02-09T16:25:52.819Z,10.77
2023-02-09T16:28:21.687Z,11.82
2023-02-09T16:30:58.213Z,10.10
2023-02-09T16:33:26.221Z,15.00
2023-02-09T16:36:12.994Z,10.95
2023-02-09T16:38:40.075Z,15.55
2023-02-09T16:41:29.239Z,15.77
2023-02-09T16:43:56.198Z,14.52
2023-02-09T16:46:23.297Z,19.05
2023-02-09T16:48:50.782Z,13.23
2023-02-09T16:51:19.078Z,12.90
2023-02-09T16:53:51.571Z,10.18
2023-02-09T16:56:19.809Z,13.80
2023-02-09T16:58:48.575Z,15.45
2023-02-09T17:01:22.614Z,14.93
2023-02-09T17:03:56.098Z,14.93
2023-02-09T17:06:27.301Z,15.93
2023-02-09T17:08:56.606Z,12.45
2023-02-09T17:11:27.413Z,15.23
2023-02-09T17:13:54.594Z,11.63
2023-02-09T17:16:24.558Z,16.92
2023-02-09T17:18:56.538Z,14.73
2023-02-09T17:21:34.932Z,10.65
2023-02-09T17:24:04.196Z,17.75
2023-02-09T17:26:31.480Z,16.90
2023-02-09T17:28:58.445Z,11.27
2023-02-09T17:31:40.990Z,13.98
2023-02-09T17:34:16.784Z,13.90
2023-02-09T17:36:44.990Z,42.90
2023-02-09T17:39:12.418Z,31.63
2023-02-09T17:41:44.863Z,11.90
2023-02-09T17:44:29.138Z,5.13
2023-02-09T17:47:05.917Z,3.60
2023-02-09T17:49:33.277Z,3.30
2023-02-09T17:52:00.336Z,3.28
2023-02-09T17:54:27.914Z,4.43
2023-02-09T17:56:54.942Z,1.48
2023-02-09T17:59:21.958Z,4.03
2023-02-09T18:01:50.300Z,2.50
2023-02-09T18:04:21.868Z,4.00
2023-02-09T18:06:49.007Z,2.40
2023-02-09T18:09:16.137Z,3.00
2023-02-09T18:11:52.211Z,3.65
2023-02-09T18:14:22.257Z,2.50
2023-02-09T18:16:50.484Z,2.08
2023-02-09T18:19:18.690Z,2.95
2023-02-09T18:21:53.250Z,3.25
2023-02-09T18:24:24.058Z,2.53
2023-02-09T18:26:51.238Z,2.90
2023-02-09T18:29:22.793Z,2.53
2023-02-09T18:31:51.123Z,3.22
2023-02-09T18:34:18.278Z,3.42
2023-02-09T18:36:45.268Z,2.88
2023-02-09T18:39:14.374Z,1.92
2023-02-09T18:41:41.739Z,3.05
2023-02-09T18:44:08.908Z,3.08
2023-02-09T18:46:36.253Z,2.22
2023-02-09T18:49:03.866Z,3.80
2023-02-09T18:51:31.368Z,4.03
2023-02-09T18:53:58.933Z,4.65
2023-02-09T18:56:28.301Z,4.50
2023-02-09T18:58:55.439Z,2.88
2023-02-09T19:01:24.271Z,3.92
2023-02-09T19:03:52.986Z,4.38
2023-02-09T19:06:21.384Z,4.80
2023-02-09T19:08:50.497Z,4.53
2023-02-09T19:11:21.306Z,5.18
2023-02-09T19:14:07.736Z,5.20
2023-02-09T19:16:36.741Z,3.00
2023-02-09T19:19:04.344Z,5.18
2023-02-09T19:21:32.311Z,4.05
2023-02-09T19:23:59.428Z,4.70
2023-02-09T19:26:26.462Z,3.80
2023-02-09T19:28:55.788Z,3.50
2023-02-09T19:31:23.059Z,4.03
2023-02-09T19:33:53.728Z,3.70
2023-02-09T19:36:22.767Z,1.58
2023-02-09T19:38:49.735Z,3.50
2023-02-09T19:41:16.943Z,4.97
2023-02-09T19:43:44.044Z,2.60
2023-02-09T19:46:11.192Z,3.38
2023-02-09T19:48:40.278Z,2.88
2023-02-09T19:51:08.423Z,2.70
2023-02-09T19:53:35.609Z,3.15
2023-02-09T19:56:02.736Z,1.83
2023-02-09T19:59:03.947Z,4.10
2023-02-09T20:01:31.615Z,2.15
2023-02-09T20:03:59.119Z,6.13
2023-02-09T20:06:26.159Z,2.65
2023-02-09T20:08:53.106Z,3.03
2023-02-09T20:11:21.183Z,4.18
2023-02-09T20:13:52.947Z,2.50
2023-02-09T20:16:24.803Z,2.70
2023-02-09T20:18:52.591Z,3.28
2023-02-09T20:21:22.499Z,2.55
2023-02-09T20:23:52.965Z,3.33
2023-02-09T20:26:26.009Z,5.53
2023-02-09T20:31:25.250Z,2.45
2023-02-09T20:33:53.206Z,4.85
2023-02-09T20:36:20.951Z,5.07
2023-02-09T20:38:48.366Z,3.50
2023-02-09T20:41:18.098Z,3.75
2023-02-09T20:44:03.989Z,2.75
2023-02-09T20:46:51.794Z,3.65
2023-02-09T20:49:19.459Z,11.25
2023-02-09T20:51:47.235Z,16.00
2023-02-09T20:54:15.254Z,13.35
2023-02-09T20:56:43.070Z,15.27
2023-02-09T20:59:11.759Z,17.23
2023-02-09T21:01:40.094Z,17.17
2023-02-09T21:04:07.841Z,18.27
2023-02-09T21:06:38.361Z,17.20
2023-02-09T21:09:08.102Z,20.67
2023-02-09T21:11:35.205Z,18.70
2023-02-09T21:14:02.614Z,22.10
2023-02-09T21:16:30.914Z,25.80
2023-02-09T21:18:59.025Z,41.13
2023-02-09T21:21:27.101Z,36.63
2023-02-09T21:23:54.884Z,20.98
2023-02-09T21:26:24.532Z,6.68
2023-02-09T21:28:56.514Z,5.80
2023-02-09T21:31:27.375Z,7.53
2023-02-09T21:33:54.728Z,4.28
2023-02-09T21:36:21.758Z,4.38
2023-02-09T21:38:48.816Z,6.70
2023-02-09T21:41:40.957Z,4.25
2023-02-09T21:44:12.985Z,4.55
2023-02-09T21:46:39.950Z,3.25
2023-02-09T21:49:07.127Z,5.57
2023-02-09T21:51:35.276Z,4.40
2023-02-09T21:54:02.205Z,3.22
2023-02-09T21:56:29.317Z,5.53
2023-02-09T21:58:56.241Z,4.50
2023-02-09T22:01:23.411Z,7.00
2023-02-09T22:03:57.079Z,3.60
2023-02-09T22:06:25.956Z,4.63
2023-02-09T22:08:53.561Z,5.55
2023-02-09T22:11:20.589Z,4.82
2023-02-09T22:13:47.689Z,5.53
2023-02-09T22:16:20.567Z,5.30
2023-02-09T22:18:47.777Z,7.22
2023-02-09T22:21:14.819Z,4.43
2023-02-09T22:23:41.990Z,5.55
2023-02-09T22:26:10.034Z,7.47
2023-02-09T22:28:37.214Z,4.70
2023-02-09T22:31:14.460Z,4.47
2023-02-09T22:33:42.045Z,3.42
2023-02-09T22:36:17.092Z,4.93
2023-02-09T22:38:45.082Z,4.22
2023-02-09T22:41:21.986Z,3.65
2023-02-09T22:44:02.813Z,8.30
2023-02-09T22:46:38.981Z,6.00
2023-02-09T22:49:18.976Z,5.15
2023-02-09T22:51:48.563Z,5.28
2023-02-09T22:54:18.707Z,4.97
2023-02-09T22:56:46.166Z,5.80
2023-02-09T22:59:14.951Z,7.70
2023-02-09T23:01:43.330Z,5.05
2023-02-09T23:04:11.114Z,5.20
2023-02-09T23:06:38.414Z,5.53
2023-02-09T23:09:07.622Z,5.20
2023-02-09T23:11:35.902Z,5.07
2023-02-09T23:14:09.687Z,6.18
2023-02-09T23:16:39.993Z,5.30
2023-02-09T23:19:12.888Z,4.53
2023-02-09T23:24:10.256Z,6.25
2023-02-09T23:26:37.972Z,3.83
2023-02-09T23:29:09.520Z,5.15
2023-02-09T23:31:36.856Z,5.10
2023-02-09T23:34:04.206Z,4.47
2023-02-09T23:36:33.520Z,5.22
2023-02-09T23:39:05.496Z,5.22
2023-02-09T23:41:33.361Z,5.85
2023-02-09T23:44:01.070Z,6.20
2023-02-09T23:46:29.531Z,6.32
2023-02-09T23:48:57.302Z,5.13
2023-02-09T23:51:29.666Z,6.55
2023-02-09T23:53:59.591Z,8.55
2023-02-09T23:56:28.116Z,5.45
2023-02-09T23:58:55.999Z,5.20
